Terminal Aerodrome Forecast
Issued by NWS Portland, OR

Home | Current Version | Previous Version | Text Only | Print | Product List | Glossary On
Versions: 1 2 3 4 5 6 7 8 9 10 11 12 13 14 15 16 17
000
FTUS46 KPQR 301745
TAFSLE
TAF
KSLE 301745Z 3018/3118 14006KT 2SM -RA BR BKN007
     FM302200 14005KT 3SM -RA BR OVC005
     FM310300 VRB04KT 4SM -RA BR BKN015 OVC035=

USA.gov is the U.S. government's official web portal to all federal, state and local government web resources and services.